sensor_id;sensor_type;location;lat;lon;timestamp;temperature;humidity
77496;SHT31;66600;48.378;9.948;2023-12-20T00:00:10;3.63;82.57
77496;SHT31;66600;48.378;9.948;2023-12-20T00:00:41;3.65;82.33
77496;SHT31;66600;48.378;9.948;2023-12-20T00:01:11;3.63;82.40
77496;SHT31;66600;48.378;9.948;2023-12-20T00:01:42;3.60;82.62
77496;SHT31;66600;48.378;9.948;2023-12-20T00:02:12;3.59;82.79
77496;SHT31;66600;48.378;9.948;2023-12-20T00:02:42;3.60;82.82
77496;SHT31;66600;48.378;9.948;2023-12-20T00:03:16;3.56;82.77
77496;SHT31;66600;48.378;9.948;2023-12-20T00:03:47;3.56;82.93
77496;SHT31;66600;48.378;9.948;2023-12-20T00:04:17;3.56;83.03
77496;SHT31;66600;48.378;9.948;2023-12-20T00:04:47;3.59;82.85
77496;SHT31;66600;48.378;9.948;2023-12-20T00:05:18;3.56;82.84
77496;SHT31;66600;48.378;9.948;2023-12-20T00:05:48;3.54;82.77
77496;SHT31;66600;48.378;9.948;2023-12-20T00:06:18;3.52;83.15
77496;SHT31;66600;48.378;9.948;2023-12-20T00:06:49;3.56;83.12
77496;SHT31;66600;48.378;9.948;2023-12-20T00:07:19;3.60;82.89
77496;SHT31;66600;48.378;9.948;2023-12-20T00:07:50;3.59;82.89
77496;SHT31;66600;48.378;9.948;2023-12-20T00:08:21;3.58;82.77
77496;SHT31;66600;48.378;9.948;2023-12-20T00:08:51;3.59;82.79
77496;SHT31;66600;48.378;9.948;2023-12-20T00:09:22;3.58;82.92
77496;SHT31;66600;48.378;9.948;2023-12-20T00:09:52;3.58;82.94
77496;SHT31;66600;48.378;9.948;2023-12-20T00:10:22;3.56;83.04
77496;SHT31;66600;48.378;9.948;2023-12-20T00:10:53;3.59;82.96
77496;SHT31;66600;48.378;9.948;2023-12-20T00:11:23;3.60;82.96
77496;SHT31;66600;48.378;9.948;2023-12-20T00:11:54;3.60;82.99
77496;SHT31;66600;48.378;9.948;2023-12-20T00:12:24;3.63;82.93
77496;SHT31;66600;48.378;9.948;2023-12-20T00:12:54;3.59;83.07
77496;SHT31;66600;48.378;9.948;2023-12-20T00:13:25;3.58;83.11
77496;SHT31;66600;48.378;9.948;2023-12-20T00:13:55;3.59;83.17
77496;SHT31;66600;48.378;9.948;2023-12-20T00:14:26;3.59;82.97
77496;SHT31;66600;48.378;9.948;2023-12-20T00:14:56;3.62;82.84
77496;SHT31;66600;48.378;9.948;2023-12-20T00:15:26;3.62;82.83
77496;SHT31;66600;48.378;9.948;2023-12-20T00:15:57;3.65;82.75
77496;SHT31;66600;48.378;9.948;2023-12-20T00:16:27;3.63;82.74
77496;SHT31;66600;48.378;9.948;2023-12-20T00:16:57;3.59;82.79
77496;SHT31;66600;48.378;9.948;2023-12-20T00:17:28;3.62;82.81
77496;SHT31;66600;48.378;9.948;2023-12-20T00:17:58;3.62;82.66
77496;SHT31;66600;48.378;9.948;2023-12-20T00:18:29;3.63;82.78
77496;SHT31;66600;48.378;9.948;2023-12-20T00:18:59;3.62;82.91
77496;SHT31;66600;48.378;9.948;2023-12-20T00:19:29;3.65;82.75
77496;SHT31;66600;48.378;9.948;2023-12-20T00:20:00;3.63;82.75
77496;SHT31;66600;48.378;9.948;2023-12-20T00:20:30;3.59;83.04
77496;SHT31;66600;48.378;9.948;2023-12-20T00:21:00;3.59;83.09
77496;SHT31;66600;48.378;9.948;2023-12-20T00:21:31;3.62;83.10
77496;SHT31;66600;48.378;9.948;2023-12-20T00:22:01;3.60;82.88
77496;SHT31;66600;48.378;9.948;2023-12-20T00:22:31;3.65;82.69
77496;SHT31;66600;48.378;9.948;2023-12-20T00:23:02;3.62;82.73
77496;SHT31;66600;48.378;9.948;2023-12-20T00:23:33;3.62;82.71
77496;SHT31;66600;48.378;9.948;2023-12-20T00:24:03;3.62;82.93
77496;SHT31;66600;48.378;9.948;2023-12-20T00:24:34;3.62;82.98
77496;SHT31;66600;48.378;9.948;2023-12-20T00:25:05;3.59;83.19
77496;SHT31;66600;48.378;9.948;2023-12-20T00:25:35;3.59;83.39
77496;SHT31;66600;48.378;9.948;2023-12-20T00:26:05;3.60;83.21
77496;SHT31;66600;48.378;9.948;2023-12-20T00:26:36;3.58;83.28
77496;SHT31;66600;48.378;9.948;2023-12-20T00:27:06;3.58;83.35
77496;SHT31;66600;48.378;9.948;2023-12-20T00:27:36;3.58;83.21
77496;SHT31;66600;48.378;9.948;2023-12-20T00:28:07;3.60;83.06
77496;SHT31;66600;48.378;9.948;2023-12-20T00:28:37;3.59;83.00
77496;SHT31;66600;48.378;9.948;2023-12-20T00:29:08;3.59;83.26
77496;SHT31;66600;48.378;9.948;2023-12-20T00:29:38;3.59;83.29
77496;SHT31;66600;48.378;9.948;2023-12-20T00:30:09;3.62;83.16
77496;SHT31;66600;48.378;9.948;2023-12-20T00:30:39;3.62;83.25
77496;SHT31;66600;48.378;9.948;2023-12-20T00:31:10;3.59;83.58
77496;SHT31;66600;48.378;9.948;2023-12-20T00:31:40;3.59;83.49
77496;SHT31;66600;48.378;9.948;2023-12-20T00:32:10;3.62;83.07
77496;SHT31;66600;48.378;9.948;2023-12-20T00:32:41;3.66;82.94
77496;SHT31;66600;48.378;9.948;2023-12-20T00:33:16;3.62;83.04
77496;SHT31;66600;48.378;9.948;2023-12-20T00:33:46;3.63;83.17
77496;SHT31;66600;48.378;9.948;2023-12-20T00:34:17;3.59;83.40
77496;SHT31;66600;48.378;9.948;2023-12-20T00:34:47;3.59;83.32
77496;SHT31;66600;48.378;9.948;2023-12-20T00:35:18;3.62;83.33
77496;SHT31;66600;48.378;9.948;2023-12-20T00:35:48;3.62;83.42
77496;SHT31;66600;48.378;9.948;2023-12-20T00:36:19;3.60;83.29
77496;SHT31;66600;48.378;9.948;2023-12-20T00:36:49;3.62;83.34
77496;SHT31;66600;48.378;9.948;2023-12-20T00:37:20;3.63;83.45
77496;SHT31;66600;48.378;9.948;2023-12-20T00:37:50;3.62;83.46
77496;SHT31;66600;48.378;9.948;2023-12-20T00:38:20;3.58;83.73
77496;SHT31;66600;48.378;9.948;2023-12-20T00:38:51;3.58;84.00
77496;SHT31;66600;48.378;9.948;2023-12-20T00:39:24;3.54;84.07
77496;SHT31;66600;48.378;9.948;2023-12-20T00:39:54;3.56;83.90
77496;SHT31;66600;48.378;9.948;2023-12-20T00:40:25;3.58;83.73
77496;SHT31;66600;48.378;9.948;2023-12-20T00:40:55;3.60;83.71
77496;SHT31;66600;48.378;9.948;2023-12-20T00:41:25;3.60;83.56
77496;SHT31;66600;48.378;9.948;2023-12-20T00:41:56;3.59;83.69
77496;SHT31;66600;48.378;9.948;2023-12-20T00:42:26;3.62;83.57
77496;SHT31;66600;48.378;9.948;2023-12-20T00:42:57;3.66;83.49
77496;SHT31;66600;48.378;9.948;2023-12-20T00:43:27;3.65;83.55
77496;SHT31;66600;48.378;9.948;2023-12-20T00:43:57;3.63;83.54
77496;SHT31;66600;48.378;9.948;2023-12-20T00:44:28;3.65;83.67
77496;SHT31;66600;48.378;9.948;2023-12-20T00:44:59;3.65;83.57
77496;SHT31;66600;48.378;9.948;2023-12-20T00:45:29;3.65;83.54
77496;SHT31;66600;48.378;9.948;2023-12-20T00:46:00;3.65;83.57
77496;SHT31;66600;48.378;9.948;2023-12-20T00:46:30;3.65;83.61
77496;SHT31;66600;48.378;9.948;2023-12-20T00:47:00;3.65;83.66
77496;SHT31;66600;48.378;9.948;2023-12-20T00:47:31;3.66;83.67
77496;SHT31;66600;48.378;9.948;2023-12-20T00:48:02;3.65;83.66
77496;SHT31;66600;48.378;9.948;2023-12-20T00:48:32;3.65;83.68
77496;SHT31;66600;48.378;9.948;2023-12-20T00:49:03;3.63;83.83
77496;SHT31;66600;48.378;9.948;2023-12-20T00:49:33;3.66;83.82
77496;SHT31;66600;48.378;9.948;2023-12-20T00:50:04;3.65;83.71
77496;SHT31;66600;48.378;9.948;2023-12-20T00:50:34;3.62;83.73
77496;SHT31;66600;48.378;9.948;2023-12-20T00:51:04;3.63;83.83
77496;SHT31;66600;48.378;9.948;2023-12-20T00:51:35;3.63;83.94
77496;SHT31;66600;48.378;9.948;2023-12-20T00:52:05;3.62;84.15
77496;SHT31;66600;48.378;9.948;2023-12-20T00:52:36;3.62;84.16
77496;SHT31;66600;48.378;9.948;2023-12-20T00:53:06;3.62;84.20
77496;SHT31;66600;48.378;9.948;2023-12-20T00:53:37;3.63;83.98
77496;SHT31;66600;48.378;9.948;2023-12-20T00:54:07;3.62;84.05
77496;SHT31;66600;48.378;9.948;2023-12-20T00:54:37;3.63;84.13
77496;SHT31;66600;48.378;9.948;2023-12-20T00:55:08;3.60;84.12
77496;SHT31;66600;48.378;9.948;2023-12-20T00:55:38;3.60;84.17
77496;SHT31;66600;48.378;9.948;2023-12-20T00:56:09;3.58;84.20
77496;SHT31;66600;48.378;9.948;2023-12-20T00:56:39;3.58;84.33
77496;SHT31;66600;48.378;9.948;2023-12-20T00:57:09;3.56;84.34
77496;SHT31;66600;48.378;9.948;2023-12-20T00:57:40;3.56;84.32
77496;SHT31;66600;48.378;9.948;2023-12-20T00:58:10;3.58;84.25
77496;SHT31;66600;48.378;9.948;2023-12-20T00:58:41;3.60;84.14
77496;SHT31;66600;48.378;9.948;2023-12-20T00:59:11;3.56;84.20
77496;SHT31;66600;48.378;9.948;2023-12-20T00:59:41;3.56;84.26
77496;SHT31;66600;48.378;9.948;2023-12-20T01:00:12;3.54;84.36
77496;SHT31;66600;48.378;9.948;2023-12-20T01:00:43;3.54;84.44
77496;SHT31;66600;48.378;9.948;2023-12-20T01:01:14;3.56;84.42
77496;SHT31;66600;48.378;9.948;2023-12-20T01:01:45;3.56;84.39
77496;SHT31;66600;48.378;9.948;2023-12-20T01:02:15;3.55;84.36
77496;SHT31;66600;48.378;9.948;2023-12-20T01:02:46;3.55;84.52
77496;SHT31;66600;48.378;9.948;2023-12-20T01:03:19;3.55;84.54
77496;SHT31;66600;48.378;9.948;2023-12-20T01:03:49;3.59;84.50
77496;SHT31;66600;48.378;9.948;2023-12-20T01:04:21;3.55;84.65
77496;SHT31;66600;48.378;9.948;2023-12-20T01:04:51;3.52;84.78
77496;SHT31;66600;48.378;9.948;2023-12-20T01:05:22;3.54;84.74
77496;SHT31;66600;48.378;9.948;2023-12-20T01:05:55;3.54;84.78
77496;SHT31;66600;48.378;9.948;2023-12-20T01:06:25;3.52;84.77
77496;SHT31;66600;48.378;9.948;2023-12-20T01:06:56;3.54;84.78
77496;SHT31;66600;48.378;9.948;2023-12-20T01:07:26;3.56;84.73
77496;SHT31;66600;48.378;9.948;2023-12-20T01:07:56;3.59;84.76
77496;SHT31;66600;48.378;9.948;2023-12-20T01:08:27;3.60;84.68
77496;SHT31;66600;48.378;9.948;2023-12-20T01:08:57;3.60;84.64
77496;SHT31;66600;48.378;9.948;2023-12-20T01:09:27;3.59;84.64
77496;SHT31;66600;48.378;9.948;2023-12-20T01:09:58;3.55;84.75
77496;SHT31;66600;48.378;9.948;2023-12-20T01:10:28;3.55;84.91
77496;SHT31;66600;48.378;9.948;2023-12-20T01:10:59;3.49;85.17
77496;SHT31;66600;48.378;9.948;2023-12-20T01:11:29;3.54;85.03
77496;SHT31;66600;48.378;9.948;2023-12-20T01:12:00;3.56;85.00
77496;SHT31;66600;48.378;9.948;2023-12-20T01:12:30;3.58;85.00
77496;SHT31;66600;48.378;9.948;2023-12-20T01:13:00;3.55;84.96
77496;SHT31;66600;48.378;9.948;2023-12-20T01:13:31;3.60;85.02
77496;SHT31;66600;48.378;9.948;2023-12-20T01:14:01;3.60;84.98
77496;SHT31;66600;48.378;9.948;2023-12-20T01:14:32;3.60;85.00
77496;SHT31;66600;48.378;9.948;2023-12-20T01:15:03;3.55;85.21
77496;SHT31;66600;48.378;9.948;2023-12-20T01:15:33;3.54;85.43
77496;SHT31;66600;48.378;9.948;2023-12-20T01:16:04;3.55;85.43
77496;SHT31;66600;48.378;9.948;2023-12-20T01:16:36;3.59;85.11
77496;SHT31;66600;48.378;9.948;2023-12-20T01:17:06;3.55;85.13
77496;SHT31;66600;48.378;9.948;2023-12-20T01:17:37;3.51;85.32
77496;SHT31;66600;48.378;9.948;2023-12-20T01:18:07;3.55;85.48
77496;SHT31;66600;48.378;9.948;2023-12-20T01:18:37;3.48;85.67
77496;SHT31;66600;48.378;9.948;2023-12-20T01:19:09;3.49;85.66
77496;SHT31;66600;48.378;9.948;2023-12-20T01:19:39;3.52;85.56
77496;SHT31;66600;48.378;9.948;2023-12-20T01:20:10;3.51;85.64
77496;SHT31;66600;48.378;9.948;2023-12-20T01:20:40;3.49;85.90
77496;SHT31;66600;48.378;9.948;2023-12-20T01:21:10;3.46;86.07
77496;SHT31;66600;48.378;9.948;2023-12-20T01:21:41;3.49;85.99
77496;SHT31;66600;48.378;9.948;2023-12-20T01:22:11;3.52;85.87
77496;SHT31;66600;48.378;9.948;2023-12-20T01:22:41;3.51;85.81
77496;SHT31;66600;48.378;9.948;2023-12-20T01:23:13;3.54;85.72
77496;SHT31;66600;48.378;9.948;2023-12-20T01:23:43;3.56;85.63
77496;SHT31;66600;48.378;9.948;2023-12-20T01:24:13;3.56;85.69
77496;SHT31;66600;48.378;9.948;2023-12-20T01:24:44;3.52;85.91
77496;SHT31;66600;48.378;9.948;2023-12-20T01:25:14;3.49;86.07
77496;SHT31;66600;48.378;9.948;2023-12-20T01:25:44;3.48;86.16
77496;SHT31;66600;48.378;9.948;2023-12-20T01:26:15;3.51;86.21
77496;SHT31;66600;48.378;9.948;2023-12-20T01:26:45;3.51;86.22
77496;SHT31;66600;48.378;9.948;2023-12-20T01:27:15;3.51;86.21
77496;SHT31;66600;48.378;9.948;2023-12-20T01:27:46;3.51;86.21
77496;SHT31;66600;48.378;9.948;2023-12-20T01:28:16;3.54;86.15
77496;SHT31;66600;48.378;9.948;2023-12-20T01:28:46;3.55;86.14
77496;SHT31;66600;48.378;9.948;2023-12-20T01:29:17;3.55;86.17
77496;SHT31;66600;48.378;9.948;2023-12-20T01:29:47;3.54;86.20
77496;SHT31;66600;48.378;9.948;2023-12-20T01:30:17;3.51;86.25
77496;SHT31;66600;48.378;9.948;2023-12-20T01:30:48;3.54;86.20
77496;SHT31;66600;48.378;9.948;2023-12-20T01:31:18;3.55;86.22
77496;SHT31;66600;48.378;9.948;2023-12-20T01:31:48;3.51;86.32
77496;SHT31;66600;48.378;9.948;2023-12-20T01:32:19;3.51;86.46
77496;SHT31;66600;48.378;9.948;2023-12-20T01:32:49;3.48;86.60
77496;SHT31;66600;48.378;9.948;2023-12-20T01:33:19;3.52;86.57
77496;SHT31;66600;48.378;9.948;2023-12-20T01:33:50;3.51;86.69
77496;SHT31;66600;48.378;9.948;2023-12-20T01:34:20;3.49;86.73
77496;SHT31;66600;48.378;9.948;2023-12-20T01:34:51;3.49;86.65
77496;SHT31;66600;48.378;9.948;2023-12-20T01:35:21;3.52;86.70
77496;SHT31;66600;48.378;9.948;2023-12-20T01:35:51;3.58;86.64
77496;SHT31;66600;48.378;9.948;2023-12-20T01:36:22;3.60;86.38
77496;SHT31;66600;48.378;9.948;2023-12-20T01:36:52;3.56;86.52
77496;SHT31;66600;48.378;9.948;2023-12-20T01:37:22;3.56;86.62
77496;SHT31;66600;48.378;9.948;2023-12-20T01:37:55;3.51;86.83
77496;SHT31;66600;48.378;9.948;2023-12-20T01:38:26;3.49;87.04
77496;SHT31;66600;48.378;9.948;2023-12-20T01:38:57;3.49;87.28
77496;SHT31;66600;48.378;9.948;2023-12-20T01:39:27;3.52;87.24
77496;SHT31;66600;48.378;9.948;2023-12-20T01:39:57;3.46;87.26
77496;SHT31;66600;48.378;9.948;2023-12-20T01:40:28;3.51;87.24
77496;SHT31;66600;48.378;9.948;2023-12-20T01:40:59;3.49;87.21
77496;SHT31;66600;48.378;9.948;2023-12-20T01:41:30;3.52;87.27
77496;SHT31;66600;48.378;9.948;2023-12-20T01:42:00;3.54;87.23
77496;SHT31;66600;48.378;9.948;2023-12-20T01:42:30;3.51;87.22
77496;SHT31;66600;48.378;9.948;2023-12-20T01:43:02;3.56;87.21
77496;SHT31;66600;48.378;9.948;2023-12-20T01:43:35;3.54;87.28
77496;SHT31;66600;48.378;9.948;2023-12-20T01:44:05;3.56;87.42
77496;SHT31;66600;48.378;9.948;2023-12-20T01:44:36;3.56;87.40
77496;SHT31;66600;48.378;9.948;2023-12-20T01:45:06;3.58;87.40
77496;SHT31;66600;48.378;9.948;2023-12-20T01:45:37;3.54;87.45
77496;SHT31;66600;48.378;9.948;2023-12-20T01:46:07;3.56;87.50
77496;SHT31;66600;48.378;9.948;2023-12-20T01:46:38;3.58;87.42
77496;SHT31;66600;48.378;9.948;2023-12-20T01:47:08;3.62;87.32
77496;SHT31;66600;48.378;9.948;2023-12-20T01:47:39;3.65;87.29
77496;SHT31;66600;48.378;9.948;2023-12-20T01:48:09;3.65;87.26
77496;SHT31;66600;48.378;9.948;2023-12-20T01:48:41;3.62;87.30
77496;SHT31;66600;48.378;9.948;2023-12-20T01:49:11;3.56;87.55
77496;SHT31;66600;48.378;9.948;2023-12-20T01:49:42;3.56;87.72
77496;SHT31;66600;48.378;9.948;2023-12-20T01:50:13;3.56;87.77
77496;SHT31;66600;48.378;9.948;2023-12-20T01:50:44;3.55;87.73
77496;SHT31;66600;48.378;9.948;2023-12-20T01:51:15;3.59;87.71
77496;SHT31;66600;48.378;9.948;2023-12-20T01:51:46;3.56;87.65
77496;SHT31;66600;48.378;9.948;2023-12-20T01:52:16;3.55;87.72
77496;SHT31;66600;48.378;9.948;2023-12-20T01:52:47;3.58;87.75
77496;SHT31;66600;48.378;9.948;2023-12-20T01:53:20;3.58;87.84
77496;SHT31;66600;48.378;9.948;2023-12-20T01:53:51;3.60;87.87
77496;SHT31;66600;48.378;9.948;2023-12-20T01:54:22;3.58;87.88
77496;SHT31;66600;48.378;9.948;2023-12-20T01:54:53;3.59;87.93
77496;SHT31;66600;48.378;9.948;2023-12-20T01:55:25;3.58;87.94
77496;SHT31;66600;48.378;9.948;2023-12-20T01:55:58;3.60;87.93
77496;SHT31;66600;48.378;9.948;2023-12-20T01:56:29;3.62;87.92
77496;SHT31;66600;48.378;9.948;2023-12-20T01:57:00;3.58;87.99
77496;SHT31;66600;48.378;9.948;2023-12-20T01:57:31;3.60;87.98
77496;SHT31;66600;48.378;9.948;2023-12-20T01:58:02;3.62;87.90
77496;SHT31;66600;48.378;9.948;2023-12-20T01:58:33;3.60;87.89
77496;SHT31;66600;48.378;9.948;2023-12-20T01:59:03;3.60;87.92
77496;SHT31;66600;48.378;9.948;2023-12-20T01:59:35;3.62;87.84
77496;SHT31;66600;48.378;9.948;2023-12-20T02:00:06;3.60;87.77
77496;SHT31;66600;48.378;9.948;2023-12-20T02:00:37;3.55;87.82
77496;SHT31;66600;48.378;9.948;2023-12-20T02:01:08;3.58;87.90
77496;SHT31;66600;48.378;9.948;2023-12-20T02:01:38;3.59;87.92
77496;SHT31;66600;48.378;9.948;2023-12-20T02:02:09;3.60;87.82
77496;SHT31;66600;48.378;9.948;2023-12-20T02:02:43;3.62;87.82
77496;SHT31;66600;48.378;9.948;2023-12-20T02:03:15;3.60;87.77
77496;SHT31;66600;48.378;9.948;2023-12-20T02:03:46;3.60;87.79
77496;SHT31;66600;48.378;9.948;2023-12-20T02:04:16;3.59;87.87
77496;SHT31;66600;48.378;9.948;2023-12-20T02:04:47;3.62;87.83
77496;SHT31;66600;48.378;9.948;2023-12-20T02:05:17;3.60;87.89
77496;SHT31;66600;48.378;9.948;2023-12-20T02:05:48;3.55;87.99
77496;SHT31;66600;48.378;9.948;2023-12-20T02:06:18;3.56;88.06
77496;SHT31;66600;48.378;9.948;2023-12-20T02:06:52;3.56;88.09
77496;SHT31;66600;48.378;9.948;2023-12-20T02:07:23;3.55;88.06
77496;SHT31;66600;48.378;9.948;2023-12-20T02:07:53;3.51;88.19
77496;SHT31;66600;48.378;9.948;2023-12-20T02:08:24;3.52;88.25
77496;SHT31;66600;48.378;9.948;2023-12-20T02:08:54;3.52;88.39
77496;SHT31;66600;48.378;9.948;2023-12-20T02:09:24;3.54;88.45
77496;SHT31;66600;48.378;9.948;2023-12-20T02:09:55;3.51;88.52
77496;SHT31;66600;48.378;9.948;2023-12-20T02:10:25;3.54;88.55
77496;SHT31;66600;48.378;9.948;2023-12-20T02:10:56;3.48;88.73
77496;SHT31;66600;48.378;9.948;2023-12-20T02:11:27;3.46;88.90
77496;SHT31;66600;48.378;9.948;2023-12-20T02:11:58;3.45;89.00
77496;SHT31;66600;48.378;9.948;2023-12-20T02:12:30;3.45;89.22
77496;SHT31;66600;48.378;9.948;2023-12-20T02:13:00;3.45;89.45
77496;SHT31;66600;48.378;9.948;2023-12-20T02:13:31;3.41;89.64
77496;SHT31;66600;48.378;9.948;2023-12-20T02:14:01;3.43;89.66
77496;SHT31;66600;48.378;9.948;2023-12-20T02:14:31;3.43;89.74
77496;SHT31;66600;48.378;9.948;2023-12-20T02:15:02;3.45;89.83
77496;SHT31;66600;48.378;9.948;2023-12-20T02:15:32;3.42;89.93
77496;SHT31;66600;48.378;9.948;2023-12-20T02:16:03;3.42;89.92
77496;SHT31;66600;48.378;9.948;2023-12-20T02:16:34;3.42;90.10
77496;SHT31;66600;48.378;9.948;2023-12-20T02:17:04;3.45;90.20
77496;SHT31;66600;48.378;9.948;2023-12-20T02:17:36;3.41;90.33
77496;SHT31;66600;48.378;9.948;2023-12-20T02:18:06;3.42;90.59
77496;SHT31;66600;48.378;9.948;2023-12-20T02:18:37;3.39;90.68
77496;SHT31;66600;48.378;9.948;2023-12-20T02:19:13;3.41;90.78
77496;SHT31;66600;48.378;9.948;2023-12-20T02:19:43;3.41;90.84
77496;SHT31;66600;48.378;9.948;2023-12-20T02:20:13;3.38;90.96
77496;SHT31;66600;48.378;9.948;2023-12-20T02:20:44;3.36;91.22
77496;SHT31;66600;48.378;9.948;2023-12-20T02:21:14;3.36;91.27
77496;SHT31;66600;48.378;9.948;2023-12-20T02:21:45;3.36;91.34
77496;SHT31;66600;48.378;9.948;2023-12-20T02:22:15;3.36;91.42
77496;SHT31;66600;48.378;9.948;2023-12-20T02:22:46;3.35;91.60
77496;SHT31;66600;48.378;9.948;2023-12-20T02:23:16;3.36;91.70
77496;SHT31;66600;48.378;9.948;2023-12-20T02:23:46;3.34;91.81
77496;SHT31;66600;48.378;9.948;2023-12-20T02:24:17;3.35;91.86
77496;SHT31;66600;48.378;9.948;2023-12-20T02:24:47;3.36;91.79
77496;SHT31;66600;48.378;9.948;2023-12-20T02:25:18;3.34;91.94
77496;SHT31;66600;48.378;9.948;2023-12-20T02:25:48;3.36;91.95
77496;SHT31;66600;48.378;9.948;2023-12-20T02:26:18;3.36;91.92
77496;SHT31;66600;48.378;9.948;2023-12-20T02:26:49;3.32;92.38
77496;SHT31;66600;48.378;9.948;2023-12-20T02:27:19;3.31;92.40
77496;SHT31;66600;48.378;9.948;2023-12-20T02:27:50;3.34;92.35
77496;SHT31;66600;48.378;9.948;2023-12-20T02:28:21;3.35;92.36
77496;SHT31;66600;48.378;9.948;2023-12-20T02:28:52;3.35;92.36
77496;SHT31;66600;48.378;9.948;2023-12-20T02:29:23;3.39;92.42
77496;SHT31;66600;48.378;9.948;2023-12-20T02:29:53;3.36;92.44
77496;SHT31;66600;48.378;9.948;2023-12-20T02:30:23;3.38;92.40
77496;SHT31;66600;48.378;9.948;2023-12-20T02:30:54;3.35;92.42
77496;SHT31;66600;48.378;9.948;2023-12-20T02:31:24;3.38;92.54
77496;SHT31;66600;48.378;9.948;2023-12-20T02:31:54;3.36;92.64
77496;SHT31;66600;48.378;9.948;2023-12-20T02:32:25;3.35;92.70
77496;SHT31;66600;48.378;9.948;2023-12-20T02:32:56;3.36;92.71
77496;SHT31;66600;48.378;9.948;2023-12-20T02:33:27;3.36;92.78
77496;SHT31;66600;48.378;9.948;2023-12-20T02:33:57;3.35;92.80
77496;SHT31;66600;48.378;9.948;2023-12-20T02:34:28;3.36;92.78
77496;SHT31;66600;48.378;9.948;2023-12-20T02:34:59;3.38;92.75
77496;SHT31;66600;48.378;9.948;2023-12-20T02:35:29;3.38;92.83
77496;SHT31;66600;48.378;9.948;2023-12-20T02:35:59;3.32;92.93
77496;SHT31;66600;48.378;9.948;2023-12-20T02:36:30;3.34;93.10
77496;SHT31;66600;48.378;9.948;2023-12-20T02:37:00;3.34;93.18
77496;SHT31;66600;48.378;9.948;2023-12-20T02:37:30;3.34;93.22
77496;SHT31;66600;48.378;9.948;2023-12-20T02:38:01;3.32;93.36
77496;SHT31;66600;48.378;9.948;2023-12-20T02:38:31;3.36;93.39
77496;SHT31;66600;48.378;9.948;2023-12-20T02:39:01;3.31;93.57
77496;SHT31;66600;48.378;9.948;2023-12-20T02:39:32;3.36;93.46
77496;SHT31;66600;48.378;9.948;2023-12-20T02:40:03;3.35;93.50
77496;SHT31;66600;48.378;9.948;2023-12-20T02:40:34;3.34;93.54
77496;SHT31;66600;48.378;9.948;2023-12-20T02:41:04;3.32;93.60
77496;SHT31;66600;48.378;9.948;2023-12-20T02:41:35;3.34;93.68
77496;SHT31;66600;48.378;9.948;2023-12-20T02:42:05;3.36;93.62
77496;SHT31;66600;48.378;9.948;2023-12-20T02:42:36;3.32;93.71
77496;SHT31;66600;48.378;9.948;2023-12-20T02:43:06;3.32;93.88
77496;SHT31;66600;48.378;9.948;2023-12-20T02:43:36;3.31;93.93
77496;SHT31;66600;48.378;9.948;2023-12-20T02:44:07;3.30;94.14
77496;SHT31;66600;48.378;9.948;2023-12-20T02:44:37;3.31;94.13
77496;SHT31;66600;48.378;9.948;2023-12-20T02:45:08;3.31;94.13
77496;SHT31;66600;48.378;9.948;2023-12-20T02:45:38;3.31;94.30
77496;SHT31;66600;48.378;9.948;2023-12-20T02:46:08;3.30;94.31
77496;SHT31;66600;48.378;9.948;2023-12-20T02:46:39;3.32;94.34
77496;SHT31;66600;48.378;9.948;2023-12-20T02:47:09;3.30;94.35
77496;SHT31;66600;48.378;9.948;2023-12-20T02:47:40;3.32;94.42
77496;SHT31;66600;48.378;9.948;2023-12-20T02:48:10;3.35;94.24
77496;SHT31;66600;48.378;9.948;2023-12-20T02:48:40;3.34;94.39
77496;SHT31;66600;48.378;9.948;2023-12-20T02:49:10;3.31;94.39
77496;SHT31;66600;48.378;9.948;2023-12-20T02:49:41;3.35;94.43
77496;SHT31;66600;48.378;9.948;2023-12-20T02:50:11;3.36;94.46
77496;SHT31;66600;48.378;9.948;2023-12-20T02:50:42;3.34;94.56
77496;SHT31;66600;48.378;9.948;2023-12-20T02:51:12;3.34;94.60
77496;SHT31;66600;48.378;9.948;2023-12-20T02:51:42;3.32;94.63
77496;SHT31;66600;48.378;9.948;2023-12-20T02:52:13;3.31;94.64
77496;SHT31;66600;48.378;9.948;2023-12-20T02:52:46;3.34;94.69
77496;SHT31;66600;48.378;9.948;2023-12-20T02:53:17;3.34;94.77
77496;SHT31;66600;48.378;9.948;2023-12-20T02:53:47;3.32;94.87
77496;SHT31;66600;48.378;9.948;2023-12-20T02:54:17;3.34;94.87
77496;SHT31;66600;48.378;9.948;2023-12-20T02:54:47;3.34;94.81
77496;SHT31;66600;48.378;9.948;2023-12-20T02:55:18;3.32;94.94
77496;SHT31;66600;48.378;9.948;2023-12-20T02:55:48;3.34;95.06
77496;SHT31;66600;48.378;9.948;2023-12-20T02:56:19;3.31;95.02
77496;SHT31;66600;48.378;9.948;2023-12-20T02:56:50;3.36;95.01
77496;SHT31;66600;48.378;9.948;2023-12-20T02:57:20;3.35;95.02
77496;SHT31;66600;48.378;9.948;2023-12-20T02:57:50;3.35;94.91
77496;SHT31;66600;48.378;9.948;2023-12-20T02:58:20;3.38;95.01
77496;SHT31;66600;48.378;9.948;2023-12-20T02:58:51;3.39;95.07
77496;SHT31;66600;48.378;9.948;2023-12-20T02:59:21;3.38;94.98
77496;SHT31;66600;48.378;9.948;2023-12-20T02:59:52;3.36;94.99
77496;SHT31;66600;48.378;9.948;2023-12-20T03:00:22;3.39;95.02
77496;SHT31;66600;48.378;9.948;2023-12-20T03:00:52;3.39;94.89
77496;SHT31;66600;48.378;9.948;2023-12-20T03:01:22;3.39;94.83
77496;SHT31;66600;48.378;9.948;2023-12-20T03:01:53;3.41;94.82
77496;SHT31;66600;48.378;9.948;2023-12-20T03:02:23;3.41;94.75
77496;SHT31;66600;48.378;9.948;2023-12-20T03:02:54;3.39;94.80
77496;SHT31;66600;48.378;9.948;2023-12-20T03:03:24;3.39;94.80
77496;SHT31;66600;48.378;9.948;2023-12-20T03:03:55;3.35;94.89
77496;SHT31;66600;48.378;9.948;2023-12-20T03:04:25;3.36;94.98
77496;SHT31;66600;48.378;9.948;2023-12-20T03:04:55;3.39;94.97
77496;SHT31;66600;48.378;9.948;2023-12-20T03:05:26;3.35;95.14
77496;SHT31;66600;48.378;9.948;2023-12-20T03:05:56;3.38;95.10
77496;SHT31;66600;48.378;9.948;2023-12-20T03:06:26;3.34;95.28
77496;SHT31;66600;48.378;9.948;2023-12-20T03:06:57;3.36;95.26
77496;SHT31;66600;48.378;9.948;2023-12-20T03:07:27;3.35;95.16
77496;SHT31;66600;48.378;9.948;2023-12-20T03:07:57;3.32;95.29
77496;SHT31;66600;48.378;9.948;2023-12-20T03:08:28;3.28;95.60
77496;SHT31;66600;48.378;9.948;2023-12-20T03:08:58;3.27;95.63
77496;SHT31;66600;48.378;9.948;2023-12-20T03:09:28;3.31;95.78
77496;SHT31;66600;48.378;9.948;2023-12-20T03:09:59;3.31;95.79
77496;SHT31;66600;48.378;9.948;2023-12-20T03:10:29;3.32;95.68
77496;SHT31;66600;48.378;9.948;2023-12-20T03:10:59;3.35;95.48
77496;SHT31;66600;48.378;9.948;2023-12-20T03:11:30;3.38;95.37
77496;SHT31;66600;48.378;9.948;2023-12-20T03:12:00;3.36;95.41
77496;SHT31;66600;48.378;9.948;2023-12-20T03:12:30;3.39;95.35
77496;SHT31;66600;48.378;9.948;2023-12-20T03:13:01;3.36;95.33
77496;SHT31;66600;48.378;9.948;2023-12-20T03:13:31;3.38;95.37
77496;SHT31;66600;48.378;9.948;2023-12-20T03:14:02;3.36;95.39
77496;SHT31;66600;48.378;9.948;2023-12-20T03:14:32;3.35;95.47
77496;SHT31;66600;48.378;9.948;2023-12-20T03:15:02;3.32;95.46
77496;SHT31;66600;48.378;9.948;2023-12-20T03:15:33;3.34;95.51
77496;SHT31;66600;48.378;9.948;2023-12-20T03:16:10;3.28;95.69